Bookmark and Share
Track history (hours):
 

MSC Bari

Last reported at 2014-Apr-18 16:16 UTC. Time now 2014-Apr-19 19:35 UTC.
Position N 38°44' E 121°60'.

Length 366 m; draft 11.8 m.

Type: Ship (hazmat cat A). MMSI: 636092188.

NotesDate/timePositionNaut miles runAvg speedWind from/ knotsBaromVisibWave heightAir tempDewpointWater temp
2014-Apr-18 16:16N 38°44' E 121°60'1013.5
2014-Apr-18 15:31N 38°54' E 121°57'4 0.2
2014-Apr-18 00:13N 38°57' E 121°57'912.8
2014-Apr-17 23:33N 38°49' E 121°53'1515.5
2014-Apr-17 22:33N 38°36' E 121°44'1515.0
2014-Apr-17 21:33N 38°26' E 121°29'1914.3
2014-Apr-17 20:12N 38°30' E 121°05'130 3.0
2014-Apr-16 00:33N 38°45' E 118°20'3 0.3
2014-Apr-15 14:13N 38°42' E 118°21'0 0.1
2014-Apr-15 12:31N 38°42' E 118°21'0 0.0
2014-Apr-15 09:31N 38°42' E 118°21'0 0.1
2014-Apr-15 08:31N 38°42' E 118°21'0 0.0
2014-Apr-15 05:31N 38°42' E 118°21'0 0.0
2014-Apr-14 23:31N 38°42' E 118°21'0 0.0
2014-Apr-13 11:06N 38°42' E 118°21'0 0.0
2014-Apr-13 10:24N 38°42' E 118°21'0 0.3
2014-Apr-13 09:33N 38°42' E 118°22'14211.0
2014-Apr-12 20:33N 38°27' E 121°23'1211.6
2014-Apr-12 19:33N 38°24' E 121°37'13910.3
2014-Apr-12 06:00N 36°30' E 123°18'20412.3 130 / 151016.0 2.2 13.5 7.910.5
2014-Apr-11 13:27N 33°06' E 123°22'1213.2
2014-Apr-11 12:32N 32°54' E 123°21'1313.4
2014-Apr-11 11:33N 32°41' E 123°22'1513.1
2014-Apr-11 10:24N 32°25' E 123°22'3512.4
2014-Apr-11 07:33N 31°50' E 123°23'2113.2
2014-Apr-11 06:00N 31°30' E 123°18'1711.5 120 / 141017.0 2.2 1.017.013.715.2
2014-Apr-11 04:33N 31°14' E 123°22'1212.3
2014-Apr-11 03:33N 31°01' E 123°22'1613.1
2014-Apr-11 02:18N 30°45' E 123°22'2313.2
2014-Apr-11 00:33N 30°22' E 123°18'1818.0
2014-Apr-10 23:33N 30°06' E 123°09'1413.6
2014-Apr-10 22:33N 29°54' E 123°02'1413.5
2014-Apr-10 21:32N 29°41' E 122°56'1313.1
2014-Apr-10 20:33N 29°30' E 122°49'1313.1
2014-Apr-10 19:33N 29°17' E 122°44'1312.6
2014-Apr-10 18:33N 29°06' E 122°37'1212.5
2014-Apr-10 17:33N 28°55' E 122°31'1413.0
2014-Apr-10 16:30N 28°42' E 122°27'1313.0
2014-Apr-10 15:30N 28°30' E 122°19'1413.2
2014-Apr-10 14:26N 28°17' E 122°13'1413.5
2014-Apr-10 13:21N 28°04' E 122°07'1013.0
2014-Apr-10 12:33N 27°55' E 122°02'1312.6
2014-Apr-10 11:30N 27°43' E 121°55'1312.1
2014-Apr-10 10:26N 27°33' E 121°46'1112.3
2014-Apr-10 09:32N 27°23' E 121°41'1212.3
2014-Apr-10 08:33N 27°12' E 121°34'1311.9
2014-Apr-10 07:29N 27°01' E 121°28'14711.2
2014-Apr-09 18:19N 25°02' E 119°51'825.7
2014-Apr-09 18:00N 24°54' E 119°48'3 6.6 360 / 251016.0 2.2 3.015.015.022.3
2014-Apr-09 17:30N 24°55' E 119°45'1411.7
2014-Apr-09 16:20N 24°45' E 119°34'1511.6
2014-Apr-09 15:03N 24°35' E 119°23'611.2
2014-Apr-09 14:33N 24°31' E 119°18'2511.1
2014-Apr-09 12:18N 24°16' E 118°56'2311.3
2014-Apr-09 10:19N 24°03' E 118°36'911.9
2014-Apr-09 09:33N 23°57' E 118°28'1211.7
2014-Apr-09 08:34N 23°50' E 118°18'1312.5
2014-Apr-09 07:33N 23°42' E 118°08'1312.6
2014-Apr-09 06:33N 23°34' E 117°57'1212.2
2014-Apr-09 05:33N 23°27' E 117°46'1412.0
2014-Apr-09 04:22N 23°18' E 117°35'2211.8
2014-Apr-09 02:30N 23°04' E 117°16'1312.0
2014-Apr-09 01:25N 22°57' E 117°04'1112.7
2014-Apr-09 00:33N 22°50' E 116°54'1716.1
2014-Apr-08 23:30N 22°41' E 116°39'1512.2
2014-Apr-08 22:16N 22°32' E 116°26'  

Dump ship's entire track history

sailing weather and tide predictions

MSC Bari — A8YD3 — position and weather